Milos — A8TH8 — position and weather

sailwx.info

Track history (hours):
 
Tides and Currents Weather Stations Pressure Air Temp Water Temp Dewpoint Dewpoint Depression Visibility Wind Speed Wind Dir Waves Ship Positions

Milos

Last reported at 2016-Jul-24 18:05 UTC. Time now 2016-Aug-28 06:55 UTC.
Position N 21°58' E 113°53'.
Warning: this ship's position is 34 days out of date.

Length 190 m; draft 6.8 m.

Type: Cargo ship. MMSI: 636014358.

Date/timePositionNaut miles runAvg speedWind from/ knotsBaromVisibWave heightAir tempDewpointWater temp
2016-Jul-24 18:05N 21°58' E 113°53'911.5
2016-Jul-24 17:19N 22°07' E 113°51'911.8
2016-Jul-24 16:34N 22°15' E 113°48'1311.3
2016-Jul-24 15:26N 22°28' E 113°45'1111.9
2016-Jul-24 14:31N 22°38' E 113°42'1010.7
2016-Jul-24 13:32N 22°48' E 113°37'3 2.7
2016-Jul-24 12:30N 22°49' E 113°34'0 0.0
2016-Jul-24 11:18N 22°49' E 113°34'0 0.0
2016-Jul-24 10:30N 22°49' E 113°34'0 0.0
2016-Jul-24 09:30N 22°49' E 113°34'0 0.0
2016-Jul-24 08:18N 22°49' E 113°34'0 0.0
2016-Jul-24 06:24N 22°49' E 113°34'0 0.0
2016-Jul-24 05:24N 22°49' E 113°34'0 0.0
2016-Jul-24 01:06N 22°49' E 113°34'0 0.0
2016-Jul-23 23:30N 22°49' E 113°34'0 0.0
2016-Jul-23 22:24N 22°49' E 113°34'0 0.0
2016-Jul-23 21:30N 22°49' E 113°34'0 0.1
2016-Jul-23 20:24N 22°49' E 113°34'0 0.1
2016-Jul-23 19:30N 22°49' E 113°34'0 0.0
2016-Jul-23 18:06N 22°49' E 113°34'0 0.0
2016-Jul-23 17:30N 22°49' E 113°34'0 0.0
2016-Jul-23 14:12N 22°49' E 113°34'0 0.0
2016-Jul-23 13:30N 22°49' E 113°34'0 0.0
2016-Jul-23 11:30N 22°49' E 113°34'0 0.0
2016-Jul-23 10:30N 22°49' E 113°34'0 0.0
2016-Jul-23 09:30N 22°49' E 113°34'0 0.0
2016-Jul-23 08:06N 22°49' E 113°34'0 0.1
2016-Jul-23 07:30N 22°49' E 113°34'0 0.1
2016-Jul-23 06:30N 22°49' E 113°34'0 0.0
2016-Jul-23 04:30N 22°49' E 113°34'0 0.0
2016-Jul-23 03:30N 22°49' E 113°34'0 0.1
2016-Jul-23 02:24N 22°49' E 113°34'0 0.0
2016-Jul-23 00:06N 22°49' E 113°34'0 0.1
2016-Jul-22 23:12N 22°49' E 113°34'0 0.0
2016-Jul-22 21:30N 22°49' E 113°34'0 0.0
2016-Jul-22 20:30N 22°49' E 113°34'0 0.0
2016-Jul-22 18:18N 22°49' E 113°34'0 0.0
2016-Jul-22 15:30N 22°49' E 113°34'0 0.0
2016-Jul-22 14:30N 22°49' E 113°34'0 0.0
2016-Jul-22 13:30N 22°49' E 113°34'0 0.1
2016-Jul-22 12:30N 22°49' E 113°34'0 0.0
2016-Jul-22 11:12N 22°49' E 113°34'0 0.0
2016-Jul-22 09:30N 22°49' E 113°34'0 0.0
2016-Jul-22 08:30N 22°49' E 113°34'0 0.0
2016-Jul-22 04:06N 22°49' E 113°34'0 0.0
2016-Jul-22 02:18N 22°49' E 113°34'0 0.0
2016-Jul-22 01:24N 22°49' E 113°34'0 0.0
2016-Jul-21 23:24N 22°49' E 113°34'0 0.0
2016-Jul-21 22:12N 22°49' E 113°34'0 0.1
2016-Jul-21 21:24N 22°49' E 113°34'0 0.0
2016-Jul-21 20:12N 22°49' E 113°34'0 0.1
2016-Jul-21 19:23N 22°49' E 113°34'4 5.0
2016-Jul-21 18:33N 22°46' E 113°38'4 3.1
2016-Jul-21 17:21N 22°43' E 113°40'0 0.0
2016-Jul-21 15:21N 22°43' E 113°40'1 1.2
2016-Jul-21 14:32N 22°43' E 113°41'2210.9
2016-Jul-21 12:32N 22°22' E 113°47'1111.0
2016-Jul-21 11:33N 22°11' E 113°50'6 5.3
2016-Jul-21 10:26N 22°06' E 113°52'0 0.0
2016-Jul-21 06:20N 22°06' E 113°52'0 0.1
2016-Jul-21 05:32N 22°06' E 113°52'0 0.0
2016-Jul-20 05:32N 22°06' E 113°52'0 0.0
2016-Jul-20 00:32N 22°06' E 113°52'0 0.0
2016-Jul-19 20:14N 22°06' E 113°52'0 0.0
2016-Jul-19 04:20N 22°06' E 113°52'0 0.0
2016-Jul-18 22:32N 22°06' E 113°52'0 0.0
2016-Jul-18 17:32N 22°06' E 113°52'0 0.1
2016-Jul-18 14:32N 22°06' E 113°52'  
Track history (hours):
 
Tides and Currents Weather Stations Pressure Air Temp Water Temp Dewpoint Dewpoint Depression Visibility Wind Speed Wind Dir Waves Ship Positions

Milos

Last reported at 2016-Jul-24 18:05 UTC. Time now 2016-Aug-28 06:55 UTC.
Position N 21°58' E 113°53'.
Warning: this ship's position is 34 days out of date.

Length 190 m; draft 6.8 m.

Type: Cargo ship. MMSI: 636014358.

Date/timePositionNaut miles runAvg speedWind from/ knotsBaromVisibWave heightAir tempDewpointWater temp
2016-Jul-24 18:05N 21°58' E 113°53'911.5
2016-Jul-24 17:19N 22°07' E 113°51'911.8
2016-Jul-24 16:34N 22°15' E 113°48'1311.3
2016-Jul-24 15:26N 22°28' E 113°45'1111.9
2016-Jul-24 14:31N 22°38' E 113°42'1010.7
2016-Jul-24 13:32N 22°48' E 113°37'3 2.7
2016-Jul-24 12:30N 22°49' E 113°34'0 0.0
2016-Jul-24 11:18N 22°49' E 113°34'0 0.0
2016-Jul-24 10:30N 22°49' E 113°34'0 0.0
2016-Jul-24 09:30N 22°49' E 113°34'0 0.0
2016-Jul-24 08:18N 22°49' E 113°34'0 0.0
2016-Jul-24 06:24N 22°49' E 113°34'0 0.0
2016-Jul-24 05:24N 22°49' E 113°34'0 0.0
2016-Jul-24 01:06N 22°49' E 113°34'0 0.0
2016-Jul-23 23:30N 22°49' E 113°34'0 0.0
2016-Jul-23 22:24N 22°49' E 113°34'0 0.0
2016-Jul-23 21:30N 22°49' E 113°34'0 0.1
2016-Jul-23 20:24N 22°49' E 113°34'0 0.1
2016-Jul-23 19:30N 22°49' E 113°34'0 0.0
2016-Jul-23 18:06N 22°49' E 113°34'0 0.0
2016-Jul-23 17:30N 22°49' E 113°34'0 0.0
2016-Jul-23 14:12N 22°49' E 113°34'0 0.0
2016-Jul-23 13:30N 22°49' E 113°34'0 0.0
2016-Jul-23 11:30N 22°49' E 113°34'0 0.0
2016-Jul-23 10:30N 22°49' E 113°34'0 0.0
2016-Jul-23 09:30N 22°49' E 113°34'0 0.0
2016-Jul-23 08:06N 22°49' E 113°34'0 0.1
2016-Jul-23 07:30N 22°49' E 113°34'0 0.1
2016-Jul-23 06:30N 22°49' E 113°34'0 0.0
2016-Jul-23 04:30N 22°49' E 113°34'0 0.0
2016-Jul-23 03:30N 22°49' E 113°34'0 0.1
2016-Jul-23 02:24N 22°49' E 113°34'0 0.0
2016-Jul-23 00:06N 22°49' E 113°34'0 0.1
2016-Jul-22 23:12N 22°49' E 113°34'0 0.0
2016-Jul-22 21:30N 22°49' E 113°34'0 0.0
2016-Jul-22 20:30N 22°49' E 113°34'0 0.0
2016-Jul-22 18:18N 22°49' E 113°34'0 0.0
2016-Jul-22 15:30N 22°49' E 113°34'0 0.0
2016-Jul-22 14:30N 22°49' E 113°34'0 0.0
2016-Jul-22 13:30N 22°49' E 113°34'0 0.1
2016-Jul-22 12:30N 22°49' E 113°34'0 0.0
2016-Jul-22 11:12N 22°49' E 113°34'0 0.0
2016-Jul-22 09:30N 22°49' E 113°34'0 0.0
2016-Jul-22 08:30N 22°49' E 113°34'0 0.0
2016-Jul-22 04:06N 22°49' E 113°34'0 0.0
2016-Jul-22 02:18N 22°49' E 113°34'0 0.0
2016-Jul-22 01:24N 22°49' E 113°34'0 0.0
2016-Jul-21 23:24N 22°49' E 113°34'0 0.0
2016-Jul-21 22:12N 22°49' E 113°34'0 0.1
2016-Jul-21 21:24N 22°49' E 113°34'0 0.0
2016-Jul-21 20:12N 22°49' E 113°34'0 0.1
2016-Jul-21 19:23N 22°49' E 113°34'4 5.0
2016-Jul-21 18:33N 22°46' E 113°38'4 3.1
2016-Jul-21 17:21N 22°43' E 113°40'0 0.0
2016-Jul-21 15:21N 22°43' E 113°40'1 1.2
2016-Jul-21 14:32N 22°43' E 113°41'2210.9
2016-Jul-21 12:32N 22°22' E 113°47'1111.0
2016-Jul-21 11:33N 22°11' E 113°50'6 5.3
2016-Jul-21 10:26N 22°06' E 113°52'0 0.0
2016-Jul-21 06:20N 22°06' E 113°52'0 0.1
2016-Jul-21 05:32N 22°06' E 113°52'0 0.0
2016-Jul-20 05:32N 22°06' E 113°52'0 0.0
2016-Jul-20 00:32N 22°06' E 113°52'0 0.0
2016-Jul-19 20:14N 22°06' E 113°52'0 0.0
2016-Jul-19 04:20N 22°06' E 113°52'0 0.0
2016-Jul-18 22:32N 22°06' E 113°52'0 0.0
2016-Jul-18 17:32N 22°06' E 113°52'0 0.1
2016-Jul-18 14:32N 22°06' E 113°52'  

Dump ship's entire track history